sensor_id;sensor_type;location;lat;lon;timestamp;pressure;altitude;pressure_sealevel;temperature;humidity
50103;BME280;35993;52.604;10.078;2023-08-08T00:00:37;100723.59;;;12.54;97.21
50103;BME280;35993;52.604;10.078;2023-08-08T00:03:03;100715.81;;;12.58;97.61
50103;BME280;35993;52.604;10.078;2023-08-08T00:05:28;100720.44;;;12.57;97.64
50103;BME280;35993;52.604;10.078;2023-08-08T00:07:54;100717.72;;;12.57;97.88
50103;BME280;35993;52.604;10.078;2023-08-08T00:10:20;100722.88;;;12.47;98.27
50103;BME280;35993;52.604;10.078;2023-08-08T00:12:45;100714.84;;;12.52;98.97
50103;BME280;35993;52.604;10.078;2023-08-08T00:15:11;100718.22;;;12.66;98.80
50103;BME280;35993;52.604;10.078;2023-08-08T00:17:36;100719.81;;;12.55;98.46
50103;BME280;35993;52.604;10.078;2023-08-08T00:20:02;100710.72;;;12.61;98.80
50103;BME280;35993;52.604;10.078;2023-08-08T00:22:29;100713.31;;;12.56;98.88
50103;BME280;35993;52.604;10.078;2023-08-08T00:24:54;100712.94;;;12.53;99.56
50103;BME280;35993;52.604;10.078;2023-08-08T00:27:20;100710.69;;;12.50;99.98
50103;BME280;35993;52.604;10.078;2023-08-08T00:29:46;100705.00;;;12.51;99.99
50103;BME280;35993;52.604;10.078;2023-08-08T00:32:11;100702.81;;;12.41;100.00
50103;BME280;35993;52.604;10.078;2023-08-08T00:34:37;100706.84;;;12.39;100.00
50103;BME280;35993;52.604;10.078;2023-08-08T00:37:03;100704.03;;;12.45;100.00
50103;BME280;35993;52.604;10.078;2023-08-08T00:39:28;100702.28;;;12.51;100.00
50103;BME280;35993;52.604;10.078;2023-08-08T00:41:54;100701.38;;;12.39;100.00
50103;BME280;35993;52.604;10.078;2023-08-08T00:44:19;100699.41;;;12.46;100.00
50103;BME280;35993;52.604;10.078;2023-08-08T00:46:45;100682.94;;;12.41;100.00
50103;BME280;35993;52.604;10.078;2023-08-08T00:49:11;100688.53;;;12.46;100.00
50103;BME280;35993;52.604;10.078;2023-08-08T00:51:37;100682.03;;;12.47;100.00
50103;BME280;35993;52.604;10.078;2023-08-08T00:54:03;100681.28;;;12.40;100.00
50103;BME280;35993;52.604;10.078;2023-08-08T00:56:29;100679.03;;;12.37;100.00
50103;BME280;35993;52.604;10.078;2023-08-08T00:58:55;100678.78;;;12.38;100.00
50103;BME280;35993;52.604;10.078;2023-08-08T01:01:21;100689.97;;;12.49;100.00
50103;BME280;35993;52.604;10.078;2023-08-08T01:03:48;100678.94;;;12.43;100.00
50103;BME280;35993;52.604;10.078;2023-08-08T01:06:29;100670.22;;;12.53;100.00
50103;BME280;35993;52.604;10.078;2023-08-08T01:09:00;100675.88;;;12.52;100.00
50103;BME280;35993;52.604;10.078;2023-08-08T01:11:33;100665.84;;;12.52;100.00
50103;BME280;35993;52.604;10.078;2023-08-08T01:14:00;100674.91;;;12.46;100.00
50103;BME280;35993;52.604;10.078;2023-08-08T01:16:27;100666.06;;;12.51;100.00
50103;BME280;35993;52.604;10.078;2023-08-08T01:18:55;100653.66;;;12.55;100.00
50103;BME280;35993;52.604;10.078;2023-08-08T01:21:24;100653.94;;;12.46;100.00
50103;BME280;35993;52.604;10.078;2023-08-08T01:24:11;100658.25;;;12.54;100.00
50103;BME280;35993;52.604;10.078;2023-08-08T01:26:37;100652.09;;;12.47;100.00
50103;BME280;35993;52.604;10.078;2023-08-08T01:29:02;100654.09;;;12.52;100.00
50103;BME280;35993;52.604;10.078;2023-08-08T01:31:28;100651.97;;;12.54;100.00
50103;BME280;35993;52.604;10.078;2023-08-08T01:33:53;100647.31;;;12.42;100.00
50103;BME280;35993;52.604;10.078;2023-08-08T01:36:49;100647.22;;;12.49;100.00
50103;BME280;35993;52.604;10.078;2023-08-08T01:39:14;100648.50;;;12.46;100.00
50103;BME280;35993;52.604;10.078;2023-08-08T01:41:43;100651.38;;;12.52;100.00
50103;BME280;35993;52.604;10.078;2023-08-08T01:44:10;100654.31;;;12.50;100.00
50103;BME280;35993;52.604;10.078;2023-08-08T01:46:38;100652.53;;;12.44;100.00
50103;BME280;35993;52.604;10.078;2023-08-08T01:49:04;100652.63;;;12.37;100.00
50103;BME280;35993;52.604;10.078;2023-08-08T01:51:29;100643.63;;;12.37;100.00
50103;BME280;35993;52.604;10.078;2023-08-08T01:53:55;100641.50;;;12.39;100.00
50103;BME280;35993;52.604;10.078;2023-08-08T01:56:21;100640.44;;;12.40;100.00
50103;BME280;35993;52.604;10.078;2023-08-08T01:58:47;100639.38;;;12.41;100.00
50103;BME280;35993;52.604;10.078;2023-08-08T02:01:13;100635.22;;;12.38;100.00
50103;BME280;35993;52.604;10.078;2023-08-08T02:03:38;100647.31;;;12.42;100.00
50103;BME280;35993;52.604;10.078;2023-08-08T02:06:04;100641.06;;;12.42;100.00
50103;BME280;35993;52.604;10.078;2023-08-08T02:08:29;100630.84;;;12.37;100.00
50103;BME280;35993;52.604;10.078;2023-08-08T02:10:55;100639.81;;;12.38;100.00
50103;BME280;35993;52.604;10.078;2023-08-08T02:13:20;100635.47;;;12.37;100.00
50103;BME280;35993;52.604;10.078;2023-08-08T02:15:47;100634.63;;;12.36;100.00
50103;BME280;35993;52.604;10.078;2023-08-08T02:18:12;100637.06;;;12.26;100.00
50103;BME280;35993;52.604;10.078;2023-08-08T02:20:39;100628.22;;;12.31;100.00
50103;BME280;35993;52.604;10.078;2023-08-08T02:23:04;100629.41;;;12.35;100.00
50103;BME280;35993;52.604;10.078;2023-08-08T02:25:31;100630.03;;;12.37;100.00
50103;BME280;35993;52.604;10.078;2023-08-08T02:27:57;100631.38;;;12.27;100.00
50103;BME280;35993;52.604;10.078;2023-08-08T02:30:22;100627.34;;;12.18;100.00
50103;BME280;35993;52.604;10.078;2023-08-08T02:32:48;100633.16;;;12.22;100.00
50103;BME280;35993;52.604;10.078;2023-08-08T02:35:13;100633.44;;;12.32;100.00
50103;BME280;35993;52.604;10.078;2023-08-08T02:37:39;100622.03;;;12.23;100.00
50103;BME280;35993;52.604;10.078;2023-08-08T02:40:05;100622.66;;;12.25;100.00
50103;BME280;35993;52.604;10.078;2023-08-08T02:42:31;100628.31;;;12.24;100.00
50103;BME280;35993;52.604;10.078;2023-08-08T02:44:57;100629.28;;;12.29;100.00
50103;BME280;35993;52.604;10.078;2023-08-08T02:47:22;100625.81;;;12.22;100.00
50103;BME280;35993;52.604;10.078;2023-08-08T02:49:50;100629.13;;;12.24;100.00
50103;BME280;35993;52.604;10.078;2023-08-08T02:52:15;100634.63;;;12.36;100.00
50103;BME280;35993;52.604;10.078;2023-08-08T02:54:41;100632.28;;;12.40;100.00
50103;BME280;35993;52.604;10.078;2023-08-08T02:57:06;100621.75;;;12.43;100.00
50103;BME280;35993;52.604;10.078;2023-08-08T02:59:32;100624.63;;;12.49;100.00
50103;BME280;35993;52.604;10.078;2023-08-08T03:02:00;100626.28;;;12.50;100.00
50103;BME280;35993;52.604;10.078;2023-08-08T03:04:26;100624.25;;;12.45;100.00
50103;BME280;35993;52.604;10.078;2023-08-08T03:06:52;100619.53;;;12.52;100.00
50103;BME280;35993;52.604;10.078;2023-08-08T03:09:18;100621.78;;;12.55;100.00
50103;BME280;35993;52.604;10.078;2023-08-08T03:11:44;100612.69;;;12.61;100.00
50103;BME280;35993;52.604;10.078;2023-08-08T03:14:13;100615.66;;;12.60;100.00
50103;BME280;35993;52.604;10.078;2023-08-08T03:16:39;100614.94;;;12.65;100.00
50103;BME280;35993;52.604;10.078;2023-08-08T03:19:06;100615.78;;;12.65;100.00
50103;BME280;35993;52.604;10.078;2023-08-08T03:21:32;100611.75;;;12.68;100.00
50103;BME280;35993;52.604;10.078;2023-08-08T03:23:57;100618.41;;;12.72;100.00
50103;BME280;35993;52.604;10.078;2023-08-08T03:26:23;100621.00;;;12.78;100.00
50103;BME280;35993;52.604;10.078;2023-08-08T03:28:49;100614.63;;;12.73;100.00
50103;BME280;35993;52.604;10.078;2023-08-08T03:31:20;100615.34;;;12.80;100.00
50103;BME280;35993;52.604;10.078;2023-08-08T03:33:46;100604.34;;;12.87;100.00
50103;BME280;35993;52.604;10.078;2023-08-08T03:36:13;100603.97;;;12.83;100.00
50103;BME280;35993;52.604;10.078;2023-08-08T03:38:38;100607.44;;;12.90;100.00
50103;BME280;35993;52.604;10.078;2023-08-08T03:41:05;100604.22;;;12.82;100.00
50103;BME280;35993;52.604;10.078;2023-08-08T03:43:31;100596.97;;;12.87;100.00
50103;BME280;35993;52.604;10.078;2023-08-08T03:45:57;100598.28;;;12.85;100.00
50103;BME280;35993;52.604;10.078;2023-08-08T03:48:23;100592.84;;;12.85;100.00
50103;BME280;35993;52.604;10.078;2023-08-08T03:50:49;100595.91;;;12.88;100.00
50103;BME280;35993;52.604;10.078;2023-08-08T03:53:14;100602.44;;;12.87;100.00
50103;BME280;35993;52.604;10.078;2023-08-08T03:55:40;100600.06;;;12.91;100.00
50103;BME280;35993;52.604;10.078;2023-08-08T03:58:06;100600.81;;;12.98;100.00
50103;BME280;35993;52.604;10.078;2023-08-08T04:00:33;100590.72;;;12.99;100.00
50103;BME280;35993;52.604;10.078;2023-08-08T04:02:58;100593.06;;;12.95;100.00
50103;BME280;35993;52.604;10.078;2023-08-08T04:05:24;100595.09;;;13.00;100.00
50103;BME280;35993;52.604;10.078;2023-08-08T04:07:51;100599.00;;;13.04;100.00
50103;BME280;35993;52.604;10.078;2023-08-08T04:10:16;100592.50;;;13.05;100.00
50103;BME280;35993;52.604;10.078;2023-08-08T04:12:42;100605.19;;;13.11;100.00
50103;BME280;35993;52.604;10.078;2023-08-08T04:15:07;100595.94;;;13.12;100.00
50103;BME280;35993;52.604;10.078;2023-08-08T04:17:33;100591.56;;;13.11;100.00
50103;BME280;35993;52.604;10.078;2023-08-08T04:19:59;100599.38;;;13.07;100.00
50103;BME280;35993;52.604;10.078;2023-08-08T04:22:24;100593.44;;;13.10;100.00
50103;BME280;35993;52.604;10.078;2023-08-08T04:24:50;100593.34;;;13.17;100.00
50103;BME280;35993;52.604;10.078;2023-08-08T04:27:15;100589.53;;;13.18;100.00
50103;BME280;35993;52.604;10.078;2023-08-08T04:29:41;100578.88;;;13.17;100.00
50103;BME280;35993;52.604;10.078;2023-08-08T04:32:07;100588.34;;;13.26;100.00
50103;BME280;35993;52.604;10.078;2023-08-08T04:34:32;100578.75;;;13.23;100.00
50103;BME280;35993;52.604;10.078;2023-08-08T04:36:58;100574.72;;;13.26;100.00
50103;BME280;35993;52.604;10.078;2023-08-08T04:39:24;100569.38;;;13.19;100.00
50103;BME280;35993;52.604;10.078;2023-08-08T04:41:49;100572.22;;;13.24;100.00
50103;BME280;35993;52.604;10.078;2023-08-08T04:44:14;100567.25;;;13.21;100.00
50103;BME280;35993;52.604;10.078;2023-08-08T04:46:40;100569.25;;;13.26;100.00
50103;BME280;35993;52.604;10.078;2023-08-08T04:49:06;100568.69;;;13.24;100.00
50103;BME280;35993;52.604;10.078;2023-08-08T04:51:32;100570.66;;;13.28;100.00
50103;BME280;35993;52.604;10.078;2023-08-08T04:53:57;100570.91;;;13.27;100.00
50103;BME280;35993;52.604;10.078;2023-08-08T04:56:23;100563.91;;;13.31;100.00
50103;BME280;35993;52.604;10.078;2023-08-08T04:58:48;100564.75;;;13.32;100.00
50103;BME280;35993;52.604;10.078;2023-08-08T05:01:14;100561.34;;;13.36;100.00
50103;BME280;35993;52.604;10.078;2023-08-08T05:03:40;100564.66;;;13.38;100.00
50103;BME280;35993;52.604;10.078;2023-08-08T05:06:06;100554.47;;;13.46;100.00
50103;BME280;35993;52.604;10.078;2023-08-08T05:08:32;100555.03;;;13.48;100.00
50103;BME280;35993;52.604;10.078;2023-08-08T05:10:57;100551.59;;;13.52;100.00
50103;BME280;35993;52.604;10.078;2023-08-08T05:13:23;100551.19;;;13.60;100.00
50103;BME280;35993;52.604;10.078;2023-08-08T05:15:48;100553.47;;;13.64;100.00
50103;BME280;35993;52.604;10.078;2023-08-08T05:18:14;100559.63;;;13.59;100.00
50103;BME280;35993;52.604;10.078;2023-08-08T05:20:40;100553.06;;;13.72;100.00
50103;BME280;35993;52.604;10.078;2023-08-08T05:23:05;100557.91;;;13.82;100.00
50103;BME280;35993;52.604;10.078;2023-08-08T05:25:31;100561.72;;;13.81;100.00
50103;BME280;35993;52.604;10.078;2023-08-08T05:27:56;100553.88;;;13.84;100.00
50103;BME280;35993;52.604;10.078;2023-08-08T05:30:22;100557.31;;;13.80;100.00
50103;BME280;35993;52.604;10.078;2023-08-08T05:32:47;100558.16;;;13.80;100.00
50103;BME280;35993;52.604;10.078;2023-08-08T05:35:13;100556.50;;;13.79;100.00
50103;BME280;35993;52.604;10.078;2023-08-08T05:37:39;100555.03;;;13.88;100.00
50103;BME280;35993;52.604;10.078;2023-08-08T05:40:05;100554.06;;;13.95;100.00
50103;BME280;35993;52.604;10.078;2023-08-08T05:42:32;100561.19;;;13.96;100.00
50103;BME280;35993;52.604;10.078;2023-08-08T05:44:57;100555.22;;;13.99;100.00
50103;BME280;35993;52.604;10.078;2023-08-08T05:47:23;100559.47;;;14.06;100.00
50103;BME280;35993;52.604;10.078;2023-08-08T05:49:48;100561.72;;;14.09;100.00
50103;BME280;35993;52.604;10.078;2023-08-08T05:52:14;100560.69;;;14.28;100.00
50103;BME280;35993;52.604;10.078;2023-08-08T05:54:40;100564.69;;;14.54;100.00
50103;BME280;35993;52.604;10.078;2023-08-08T05:57:06;100571.88;;;14.72;100.00
50103;BME280;35993;52.604;10.078;2023-08-08T05:59:31;100565.63;;;14.59;100.00
50103;BME280;35993;52.604;10.078;2023-08-08T06:01:57;100564.69;;;14.54;100.00
50103;BME280;35993;52.604;10.078;2023-08-08T06:04:24;100558.22;;;14.72;100.00
50103;BME280;35993;52.604;10.078;2023-08-08T06:06:50;100557.34;;;14.71;100.00
50103;BME280;35993;52.604;10.078;2023-08-08T06:09:16;100561.41;;;14.86;100.00
50103;BME280;35993;52.604;10.078;2023-08-08T06:11:42;100561.88;;;15.17;100.00
50103;BME280;35993;52.604;10.078;2023-08-08T06:14:08;100559.19;;;15.39;100.00
50103;BME280;35993;52.604;10.078;2023-08-08T06:16:34;100562.44;;;15.58;100.00
50103;BME280;35993;52.604;10.078;2023-08-08T06:18:59;100565.09;;;15.53;100.00
50103;BME280;35993;52.604;10.078;2023-08-08T06:21:25;100564.31;;;15.35;100.00
50103;BME280;35993;52.604;10.078;2023-08-08T06:23:51;100567.22;;;15.68;100.00
50103;BME280;35993;52.604;10.078;2023-08-08T06:26:20;100564.91;;;15.60;100.00
50103;BME280;35993;52.604;10.078;2023-08-08T06:28:46;100563.63;;;15.67;100.00
50103;BME280;35993;52.604;10.078;2023-08-08T06:31:13;100567.59;;;15.54;100.00
50103;BME280;35993;52.604;10.078;2023-08-08T06:33:39;100559.50;;;15.65;100.00
50103;BME280;35993;52.604;10.078;2023-08-08T06:36:05;100570.41;;;15.82;100.00
50103;BME280;35993;52.604;10.078;2023-08-08T06:38:31;100565.50;;;15.62;100.00
50103;BME280;35993;52.604;10.078;2023-08-08T06:41:00;100568.41;;;15.77;100.00
50103;BME280;35993;52.604;10.078;2023-08-08T06:43:26;100571.09;;;15.72;100.00
50103;BME280;35993;52.604;10.078;2023-08-08T06:45:51;100569.59;;;15.81;100.00
50103;BME280;35993;52.604;10.078;2023-08-08T06:48:17;100567.22;;;15.68;100.00
50103;BME280;35993;52.604;10.078;2023-08-08T06:50:43;100563.69;;;15.72;100.00
50103;BME280;35993;52.604;10.078;2023-08-08T06:53:08;100570.31;;;15.54;100.00
50103;BME280;35993;52.604;10.078;2023-08-08T06:55:34;100561.53;;;15.52;100.00
50103;BME280;35993;52.604;10.078;2023-08-08T06:57:59;100568.44;;;15.55;100.00
50103;BME280;35993;52.604;10.078;2023-08-08T07:00:25;100575.06;;;15.42;100.00
50103;BME280;35993;52.604;10.078;2023-08-08T07:02:52;100572.25;;;15.54;100.00
50103;BME280;35993;52.604;10.078;2023-08-08T07:05:18;100564.91;;;15.60;100.00
50103;BME280;35993;52.604;10.078;2023-08-08T07:07:44;100567.25;;;15.51;100.00
50103;BME280;35993;52.604;10.078;2023-08-08T07:10:10;100565.38;;;15.51;100.00
50103;BME280;35993;52.604;10.078;2023-08-08T07:12:37;100567.91;;;15.58;100.00
50103;BME280;35993;52.604;10.078;2023-08-08T07:15:03;100555.56;;;16.00;100.00
50103;BME280;35993;52.604;10.078;2023-08-08T07:17:29;100554.41;;;16.18;97.76
50103;BME280;35993;52.604;10.078;2023-08-08T07:19:55;100539.75;;;16.07;97.50
50103;BME280;35993;52.604;10.078;2023-08-08T07:22:21;100550.91;;;16.00;99.15
50103;BME280;35993;52.604;10.078;2023-08-08T07:24:47;100550.66;;;15.80;100.00
50103;BME280;35993;52.604;10.078;2023-08-08T07:27:13;100560.84;;;15.62;100.00
50103;BME280;35993;52.604;10.078;2023-08-08T07:29:38;100549.47;;;15.70;100.00
50103;BME280;35993;52.604;10.078;2023-08-08T07:32:04;100543.09;;;15.65;100.00
50103;BME280;35993;52.604;10.078;2023-08-08T07:34:30;100542.59;;;15.68;100.00
50103;BME280;35993;52.604;10.078;2023-08-08T07:36:56;100539.16;;;15.55;100.00
50103;BME280;35993;52.604;10.078;2023-08-08T07:39:21;100530.19;;;15.60;100.00
50103;BME280;35993;52.604;10.078;2023-08-08T07:41:47;100534.44;;;15.51;100.00
50103;BME280;35993;52.604;10.078;2023-08-08T07:44:12;100529.75;;;15.46;99.90
50103;BME280;35993;52.604;10.078;2023-08-08T07:46:38;100525.28;;;15.62;97.64
50103;BME280;35993;52.604;10.078;2023-08-08T07:49:03;100510.88;;;15.72;96.10
50103;BME280;35993;52.604;10.078;2023-08-08T07:51:30;100523.75;;;15.94;95.93
50103;BME280;35993;52.604;10.078;2023-08-08T07:53:56;100517.28;;;16.32;94.74
50103;BME280;35993;52.604;10.078;2023-08-08T07:56:22;100514.59;;;16.75;91.40
50103;BME280;35993;52.604;10.078;2023-08-08T07:58:47;100503.41;;;16.82;89.31
50103;BME280;35993;52.604;10.078;2023-08-08T08:01:13;100511.63;;;16.82;87.89
50103;BME280;35993;52.604;10.078;2023-08-08T08:03:39;100513.38;;;16.93;85.34
50103;BME280;35993;52.604;10.078;2023-08-08T08:06:05;100510.22;;;17.17;84.50
50103;BME280;35993;52.604;10.078;2023-08-08T08:08:31;100505.72;;;17.00;85.08
50103;BME280;35993;52.604;10.078;2023-08-08T08:10:56;100518.44;;;16.74;85.88
50103;BME280;35993;52.604;10.078;2023-08-08T08:13:22;100513.00;;;16.79;86.83
50103;BME280;35993;52.604;10.078;2023-08-08T08:15:47;100510.00;;;16.86;85.41
50103;BME280;35993;52.604;10.078;2023-08-08T08:18:13;100513.56;;;16.86;84.90
50103;BME280;35993;52.604;10.078;2023-08-08T08:20:39;100513.44;;;17.03;84.03
50103;BME280;35993;52.604;10.078;2023-08-08T08:23:05;100509.25;;;16.91;84.75
50103;BME280;35993;52.604;10.078;2023-08-08T08:25:30;100515.28;;;16.93;85.54
50103;BME280;35993;52.604;10.078;2023-08-08T08:27:57;100506.66;;;16.79;84.49
50103;BME280;35993;52.604;10.078;2023-08-08T08:30:23;100511.91;;;16.80;85.56
50103;BME280;35993;52.604;10.078;2023-08-08T08:32:51;100518.31;;;16.91;85.47
50103;BME280;35993;52.604;10.078;2023-08-08T08:35:17;100508.72;;;16.94;84.12
50103;BME280;35993;52.604;10.078;2023-08-08T08:37:42;100502.69;;;16.97;82.94
50103;BME280;35993;52.604;10.078;2023-08-08T08:40:09;100507.94;;;16.98;82.57
50103;BME280;35993;52.604;10.078;2023-08-08T08:42:35;100502.66;;;16.92;82.43
50103;BME280;35993;52.604;10.078;2023-08-08T08:45:02;100489.09;;;17.12;80.14
50103;BME280;35993;52.604;10.078;2023-08-08T08:47:31;100481.59;;;17.66;78.72
50103;BME280;35993;52.604;10.078;2023-08-08T08:49:57;100475.03;;;17.72;78.94
50103;BME280;35993;52.604;10.078;2023-08-08T08:52:23;100480.75;;;17.50;78.18
50103;BME280;35993;52.604;10.078;2023-08-08T08:54:53;100470.06;;;17.53;77.52
50103;BME280;35993;52.604;10.078;2023-08-08T08:57:21;100488.41;;;17.48;78.10
50103;BME280;35993;52.604;10.078;2023-08-08T08:59:46;100478.28;;;17.48;78.83
50103;BME280;35993;52.604;10.078;2023-08-08T09:02:12;100483.19;;;17.46;79.24
50103;BME280;35993;52.604;10.078;2023-08-08T09:04:39;100507.41;;;17.07;78.05
50103;BME280;35993;52.604;10.078;2023-08-08T09:07:06;100485.75;;;17.05;78.75
50103;BME280;35993;52.604;10.078;2023-08-08T09:09:32;100493.25;;;17.20;79.46
50103;BME280;35993;52.604;10.078;2023-08-08T09:11:58;100488.38;;;17.38;79.53
50103;BME280;35993;52.604;10.078;2023-08-08T09:14:26;100493.44;;;17.77;79.93
50103;BME280;35993;52.604;10.078;2023-08-08T09:16:53;100478.75;;;17.35;77.14
50103;BME280;35993;52.604;10.078;2023-08-08T09:19:19;100487.03;;;17.45;79.52
50103;BME280;35993;52.604;10.078;2023-08-08T09:21:46;100489.19;;;17.33;79.44
50103;BME280;35993;52.604;10.078;2023-08-08T09:24:12;100493.31;;;17.35;80.00
50103;BME280;35993;52.604;10.078;2023-08-08T09:26:42;100503.97;;;17.27;79.39
50103;BME280;35993;52.604;10.078;2023-08-08T09:29:08;100489.69;;;17.25;77.87
50103;BME280;35993;52.604;10.078;2023-08-08T09:31:35;100476.47;;;17.11;76.47
50103;BME280;35993;52.604;10.078;2023-08-08T09:34:02;100482.34;;;17.35;76.94
50103;BME280;35993;52.604;10.078;2023-08-08T09:36:28;100472.53;;;17.60;75.00
50103;BME280;35993;52.604;10.078;2023-08-08T09:38:55;100460.56;;;18.02;73.83
50103;BME280;35993;52.604;10.078;2023-08-08T09:41:24;100452.03;;;17.94;73.91
50103;BME280;35993;52.604;10.078;2023-08-08T09:43:51;100449.25;;;17.83;74.32
50103;BME280;35993;52.604;10.078;2023-08-08T09:46:18;100462.94;;;17.68;74.66
50103;BME280;35993;52.604;10.078;2023-08-08T09:48:44;100468.31;;;17.27;74.94
50103;BME280;35993;52.604;10.078;2023-08-08T09:51:10;100479.47;;;17.10;75.67
50103;BME280;35993;52.604;10.078;2023-08-08T09:53:36;100477.44;;;17.53;74.12
50103;BME280;35993;52.604;10.078;2023-08-08T09:56:05;100475.84;;;17.67;73.57
50103;BME280;35993;52.604;10.078;2023-08-08T09:58:32;100485.97;;;17.62;74.23
50103;BME280;35993;52.604;10.078;2023-08-08T10:00:57;100514.63;;;17.18;77.97
50103;BME280;35993;52.604;10.078;2023-08-08T10:03:24;100505.16;;;16.93;78.51
50103;BME280;35993;52.604;10.078;2023-08-08T10:05:49;100509.53;;;16.57;78.89
50103;BME280;35993;52.604;10.078;2023-08-08T10:08:16;100512.53;;;16.55;79.68
50103;BME280;35993;52.604;10.078;2023-08-08T10:10:44;100511.00;;;16.69;79.48
50103;BME280;35993;52.604;10.078;2023-08-08T10:13:18;100498.44;;;16.79;79.43
50103;BME280;35993;52.604;10.078;2023-08-08T10:15:45;100501.91;;;17.01;79.44
50103;BME280;35993;52.604;10.078;2023-08-08T10:18:12;100504.00;;;17.37;79.57
50103;BME280;35993;52.604;10.078;2023-08-08T10:20:39;100494.00;;;17.74;77.89
50103;BME280;35993;52.604;10.078;2023-08-08T10:23:07;100504.22;;;18.04;78.63
50103;BME280;35993;52.604;10.078;2023-08-08T10:25:33;100484.47;;;18.02;77.74
50103;BME280;35993;52.604;10.078;2023-08-08T10:28:07;100483.81;;;17.74;78.19
50103;BME280;35993;52.604;10.078;2023-08-08T10:30:46;100489.63;;;17.88;77.59
50103;BME280;35993;52.604;10.078;2023-08-08T10:33:18;100479.75;;;17.92;78.62
50103;BME280;35993;52.604;10.078;2023-08-08T10:36:10;100475.16;;;18.18;78.62
50103;BME280;35993;52.604;10.078;2023-08-08T10:41:09;100479.50;;;18.04;78.91
50103;BME280;35993;52.604;10.078;2023-08-08T10:43:36;100480.31;;;17.89;78.74
50103;BME280;35993;52.604;10.078;2023-08-08T10:46:02;100484.63;;;17.69;79.44
50103;BME280;35993;52.604;10.078;2023-08-08T10:48:28;100474.31;;;18.28;79.20
50103;BME280;35993;52.604;10.078;2023-08-08T10:50:55;100476.50;;;18.47;78.19
50103;BME280;35993;52.604;10.078;2023-08-08T10:53:25;100470.41;;;18.81;74.96
50103;BME280;35993;52.604;10.078;2023-08-08T10:56:03;100452.31;;;18.64;73.25
50103;BME280;35993;52.604;10.078;2023-08-08T10:58:40;100452.88;;;18.51;74.59
50103;BME280;35993;52.604;10.078;2023-08-08T11:01:07;100463.59;;;18.47;75.49
50103;BME280;35993;52.604;10.078;2023-08-08T11:03:38;100468.00;;;18.28;74.63
50103;BME280;35993;52.604;10.078;2023-08-08T11:06:08;100457.28;;;18.26;73.79
50103;BME280;35993;52.604;10.078;2023-08-08T11:08:35;100452.31;;;18.23;73.51
50103;BME280;35993;52.604;10.078;2023-08-08T11:11:02;100447.41;;;18.20;72.59
50103;BME280;35993;52.604;10.078;2023-08-08T11:13:28;100438.03;;;18.57;71.60
50103;BME280;35993;52.604;10.078;2023-08-08T11:15:54;100440.13;;;19.07;71.47
50103;BME280;35993;52.604;10.078;2023-08-08T11:18:20;100437.94;;;18.98;70.49
50103;BME280;35993;52.604;10.078;2023-08-08T11:20:47;100426.47;;;18.60;69.92
50103;BME280;35993;52.604;10.078;2023-08-08T11:23:12;100430.06;;;18.45;70.41
50103;BME280;35993;52.604;10.078;2023-08-08T11:25:42;100430.63;;;18.37;71.36
50103;BME280;35993;52.604;10.078;2023-08-08T11:28:09;100437.75;;;18.48;72.27
50103;BME280;35993;52.604;10.078;2023-08-08T11:30:38;100448.16;;;18.93;72.72
50103;BME280;35993;52.604;10.078;2023-08-08T11:33:05;100417.56;;;19.05;68.32
50103;BME280;35993;52.604;10.078;2023-08-08T11:35:31;100405.16;;;19.12;66.98
50103;BME280;35993;52.604;10.078;2023-08-08T11:38:00;100413.22;;;18.83;65.65
50103;BME280;35993;52.604;10.078;2023-08-08T11:40:28;100401.97;;;18.69;65.18
50103;BME280;35993;52.604;10.078;2023-08-08T11:42:54;100402.50;;;18.76;63.72
50103;BME280;35993;52.604;10.078;2023-08-08T11:45:21;100403.84;;;18.94;64.84
50103;BME280;35993;52.604;10.078;2023-08-08T11:47:51;100400.56;;;18.92;64.02
50103;BME280;35993;52.604;10.078;2023-08-08T11:50:19;100374.81;;;19.28;61.59
50103;BME280;35993;52.604;10.078;2023-08-08T11:52:46;100387.53;;;19.63;62.19
50103;BME280;35993;52.604;10.078;2023-08-08T11:55:12;100384.34;;;19.46;61.64
50103;BME280;35993;52.604;10.078;2023-08-08T11:57:39;100393.53;;;19.26;62.53
50103;BME280;35993;52.604;10.078;2023-08-08T12:00:10;100391.94;;;19.14;62.32
50103;BME280;35993;52.604;10.078;2023-08-08T12:02:40;100392.09;;;19.39;62.39
50103;BME280;35993;52.604;10.078;2023-08-08T12:05:11;100395.78;;;19.19;62.36
50103;BME280;35993;52.604;10.078;2023-08-08T12:07:37;100396.56;;;19.24;62.41
50103;BME280;35993;52.604;10.078;2023-08-08T12:10:04;100398.03;;;19.06;62.30
50103;BME280;35993;52.604;10.078;2023-08-08T12:12:33;100415.16;;;18.93;62.73
50103;BME280;35993;52.604;10.078;2023-08-08T12:15:07;100411.91;;;18.60;62.06
50103;BME280;35993;52.604;10.078;2023-08-08T12:17:32;100419.88;;;18.61;62.26
50103;BME280;35993;52.604;10.078;2023-08-08T12:19:59;100428.19;;;19.27;63.40
50103;BME280;35993;52.604;10.078;2023-08-08T12:22:25;100404.91;;;19.59;62.24
50103;BME280;35993;52.604;10.078;2023-08-08T12:24:51;100410.75;;;19.47;62.47
50103;BME280;35993;52.604;10.078;2023-08-08T12:27:17;100415.59;;;19.15;62.54
50103;BME280;35993;52.604;10.078;2023-08-08T12:29:43;100432.72;;;19.02;64.19
50103;BME280;35993;52.604;10.078;2023-08-08T12:32:08;100426.97;;;18.83;63.61
50103;BME280;35993;52.604;10.078;2023-08-08T12:34:34;100438.03;;;18.57;65.22